Tiempo atmosférico en la estación meteorológica de Viso Del Marqués, Ciudad Real (778 m.)



Fecha
DESCASC
Temp. máxima en grados centígrados (hora)
DESCASC
Temp. mínima en grados centígrados (hora)
DESCASC
Temp. media en grados centígrados
DESCASC
Racha de viento máxima en m/sg (hora)
DESCASC
Velocidad máxima media en intervalos de 10 minutos(hora)
DESCASC
Precipitaciones diarias en mm
DESCASC
Precipitaciones de 00:00 a 06:00 en mm
DESCASC
Precipitaciones de 06:00 a 12:00 en mm
DESCASC
Precipitaciones de 12:00 a 18:00 en mm
DESCASC
Precipitaciones de 18:00 a 24:00 en mm
DESCASC
10-07-2020 32.4 (17:30) 12.1 (07:20) 22.3 7.22 (13:20) 3.33 (04:30) 0 0 0 0 0
09-07-2020 30.6 (19:00) 16.7 (07:20) 23.7 9.72 (04:10) 6.11 (01:40) 0 0 0 0 0
08-07-2020 35.5 (15:50) 21.1 (06:50) 28.3 13.33 (17:30) 10 (14:10) 0 0 0 0 0
07-07-2020 36 (16:30) 20.3 (08:00) 28.1 11.11 (17:10) 5 (17:10) 0 0 0 0 0
06-07-2020 34.8 (17:20) 19.5 (00:00) 27.1 9.44 (14:40) 4.72 (20:10) 0 0 0 0 0
05-07-2020 33.6 (16:40) 16.7 (00:00) 25.1 8.89 (13:50) 5 (15:10) 0 0 0 0 0
04-07-2020 32.4 (18:40) 15.1 (00:00) 23.8 6.67 (20:00) 4.17 (20:20) 0 0 0 0 0
03-07-2020 30.6 (18:10) 13.6 (06:30) 22.1 7.5 (14:20) 3.89 (00:30) 0 0 0 0 0
02-07-2020 30.5 (15:50) 16.6 (00:00) 23.6 11.94 (12:20) 6.67 (15:20) 0 0 0 0 0
01-07-2020 31 (17:10) 17 (00:00) 24 10.28 (11:00) 7.5 (20:10) 0 0 0 0 0
30-06-2020 32.7 (15:30) 18.5 (00:00) 25.6 11.11 (16:50) 6.67 (16:40) 0 0 0 0 0
29-06-2020 33.6 (17:50) 16.7 (00:00) 25.1 8.06 (14:10) 4.72 (17:30) 0 0 0 0 0
28-06-2020 32.3 (18:10) 16.4 (00:00) 24.3 10.28 (20:20) 3.89 (18:30) 0 0 0 0 0
27-06-2020 29.8 (18:20) 12.4 (00:00) 21.1 7.78 (16:40) 3.61 (15:00) 0 0 0 0 0
26-06-2020 27.9 (16:20) 15.7 (00:00) 21.8 11.39 (18:10) 6.67 (20:10) 0 0 0 0 0
25-06-2020 30.8 (17:50) 18.9 (00:00) 24.8 11.11 (01:50) 8.89 (02:00) 0 0 0 0 0
24-06-2020 32.2 (14:40) 18.8 (00:00) 25.5 8.61 (16:10) 5.83 (21:00) 0.8 0 0 0.8 0
23-06-2020 34.6 (17:50) 19.9 (00:00) 27.2 10.28 (23:00) 6.39 (23:50) 0 0 0 0 0
22-06-2020 33.3 (16:40) 15.1 (00:00) 24.2 10.83 (21:30) 4.72 (20:40) 0 0 0 0 0
21-06-2020 31.8 (17:30) 15.4 (00:00) 23.6 11.11 (17:00) 3.89 (15:40) 0 0 0 0 0
20-06-2020 29.7 (17:50) 12.1 (00:00) 20.9 10 (16:40) 5.28 (18:50) 0 0 0 0 0
19-06-2020 27.5 (16:40) 10.7 (00:00) 19.1 9.44 (17:10) 5.28 (19:10) 0 0 0 0 0
18-06-2020 26.6 (18:10) 10.3 (00:00) 18.5 8.89 (15:20) 5.83 (15:10) 0 0 0 0 0
17-06-2020 24.3 (16:40) 10.7 (00:00) 17.5 11.94 (15:10) 6.11 (12:20) 0 0 0 0 0
16-06-2020 24.6 (16:50) 12.7 (00:00) 18.7 13.33 (16:20) 7.5 (18:40) 0 0 0 0 0
15-06-2020 25.2 (18:10) 9.8 (00:00) 17.5 9.17 (16:20) 5.56 (17:50) 0 0 0 0 0

Gráficas

Temp. máximas Temp. mínimas Temp. medias Precipitaciones Rachas de viento máximas Velocidades máximas media en intervalos de 10 minutos

Datos horarios

Fecha y hora oficial Temperatura (ºC) Velocidad del viento (km/h) Dirección del viento Racha (km/h) Dirección de racha Precipitación (mm) Presión (hPa) Tendencia (hPa) Humedad (%)
2020-07-14 23:00:00 16.7 16 Sudeste 34 Sudoeste 0.3 925.4 0.1 75
2020-07-14 22:00:00 17.3 5 Sudeste 33 Sudeste 1.2 925.3 -0.1 68
2020-07-14 21:00:00 17.8 17 Sudeste 27 Este 1.4 925.3 -0.1 55
2020-07-14 20:00:00 23.4 10 Nordeste 38 Norte 0 925.3 -0.1 45
2020-07-14 19:00:00 25.6 13 Sur 21 Oeste 0 925.4 0.1 42
2020-07-14 18:00:00 27 8 Oeste 19 Oeste 0 925.4 0 41
2020-07-14 17:00:00 26.9 3 Sur 22 Noroeste 0 925.4 0 44
2020-07-14 16:00:00 26 10 Oeste 25 Sur 0 925.3 -0.1 43
2020-07-14 15:00:00 26.4 17 Sur 26 Sur 0 925.4 0.1 41
2020-07-14 14:00:00 28.9 6 Sur 24 Sur 0 925.4 0.2 41
2020-07-14 13:00:00 27.3 5 Sudoeste 23 Sur 0 925.4 0 42
2020-07-14 12:00:00 25.3 15 Sur 26 Sudoeste 0 925.3 0 43
2020-07-14 11:00:00 24.6 14 Sudoeste 27 Oeste 0 925.2 -0.1 45
2020-07-14 10:00:00 24 5 Oeste 17 Oeste 0 925.4 0.1 47
2020-07-14 09:00:00 23 3 Noroeste 12 Oeste 0 925.3 0 51
2020-07-14 08:00:00 20.8 9 Oeste 28 Sudoeste 0 925.3 -- 54
2020-07-14 07:00:00 19.2 14 Sudoeste 27 Sudoeste 0 925.3 -- 57
2020-07-14 06:00:00 20 3 Sudoeste 17 Sur 0 925.3 -- 56
2020-07-14 05:00:00 21.3 4 Sur 13 Sur 0 925.3 -- 52
2020-07-14 04:00:00 21.2 10 Sur 24 Sur 0 925.3 -- 48
2020-07-14 03:00:00 22.2 18 Sur 25 Sur 0 925.4 -- 41
2020-07-14 02:00:00 23.5 12 Sudeste 19 Sudeste 0 925.3 -- 40
2020-07-14 01:00:00 25.4 2 Sudeste 5 Sur 0 925.3 -- 39
2020-07-14 00:00:00 25.5 3 Sur 8 Norte 0 925.2 -- 39
2020-07-13 23:00:00 26.8 4 Oeste 8 Noroeste 0 925.3 -- 38
2020-07-13 22:00:00 26.9 3 Oeste 6 Sudoeste 0 925.3 -0.1 38
2020-07-13 21:00:00 27.6 3 Sudoeste 5 Sur 0 925.2 -0.2 37
2020-07-13 20:00:00 -- 6 Sudeste 14 Sudeste 0 925.2 -0.2 --
2020-07-13 19:00:00 28.2 8 Sur 16 Sur 0 925.4 0.1 37
2020-07-13 18:00:00 29.6 6 Nordeste 18 Nordeste 0 925.4 0 36
2020-07-13 17:00:00 30 5 Sudoeste 21 Sur 0 925.4 0 36
2020-07-13 16:00:00 29.2 13 Sur 32 Sudeste 0 925.3 -0.2 38
2020-07-13 15:00:00 28.9 8 Norte 24 Norte 0 925.4 0 39
2020-07-13 14:00:00 28.8 7 Noroeste 15 Norte 0 925.4 0 40
2020-07-13 13:00:00 28.5 0 Calma 22 Sudeste 0 925.5 0.1 43
2020-07-13 12:00:00 26.1 5 Sudoeste 23 Sudoeste 0 925.4 0.1 47
2020-07-13 11:00:00 25.5 12 Oeste 24 Sudoeste 0 925.4 0.1 48
2020-07-13 10:00:00 23.8 5 Norte 10 Noroeste 0 925.4 0.1 52
2020-07-13 09:00:00 23.5 0 Calma 13 Sudoeste 0 925.3 -0.1 54
2020-07-13 08:00:00 20.2 4 Noroeste 25 Sudoeste 0 925.3 0 60
2020-07-13 07:00:00 19 15 Sudoeste 25 Sudoeste 0 925.3 -- 61
2020-07-13 06:00:00 19.9 0 Calma 19 Sudoeste 0 925.4 0.2 59
2020-07-13 05:00:00 19.3 17 Sur 28 Sur 0 925.3 0 59
2020-07-13 04:00:00 20.5 15 Sur 31 Sur 0 925.3 -0.1 51
2020-07-13 03:00:00 21.9 7 Sur 15 Sur 0 925.2 -0.1 46
2020-07-13 02:00:00 22.3 4 Oeste 22 Sur 0 925.3 -0.1 45
2020-07-13 01:00:00 22.6 12 Sur 23 Sudeste 0 925.4 0 44
2020-07-13 00:00:00 23.8 13 Sudeste 27 Sudeste 0 925.3 -0.1 42
2020-07-12 23:00:00 24.3 19 Sudeste 30 Sudeste 0 925.4 0 41
2020-07-12 22:00:00 26 12 Sur 24 Sudoeste 0 925.4 -0.1 34
2020-07-12 21:00:00 28.2 17 Sudoeste 29 Sudoeste 0 925.4 -0.1 32
2020-07-12 20:00:00 29.8 21 Sudoeste 32 Sudoeste 0 925.4 0 32
2020-07-12 19:00:00 30.3 23 Sudoeste 41 Sudoeste 0 925.5 0.2 32
2020-07-12 18:00:00 -- 23 Sudoeste 52 Sur 0 925.5 0.1 --
2020-07-12 17:00:00 31.7 26 Sur 39 Sur 0 925.4 0.1 32
2020-07-12 16:00:00 28.2 14 Este 28 Nordeste 0 925.3 -0.2 35
2020-07-12 15:00:00 29.2 11 Nordeste 23 Este 0 925.4 -- 34
2020-07-12 14:00:00 28.6 6 Sur 21 Oeste 0 925.3 -0.1 34
2020-07-12 13:00:00 28.6 3 Nordeste 19 Oeste 0 925.5 -- 34
2020-07-12 12:00:00 28.9 7 Noroeste 17 Noroeste 0 925.4 -- 36
2020-07-12 11:00:00 26.9 4 Noroeste 18 Oeste 0 925.4 -- 38
2020-07-12 10:00:00 25.3 6 Noroeste 12 Oeste 0 925.4 0 40
2020-07-12 09:00:00 23.2 6 Sudoeste 9 Sudoeste 0 925.3 -- 42
2020-07-12 08:00:00 21.4 4 Oeste 18 Oeste 0 925.4 -- 43
2020-07-12 07:00:00 21.6 10 Sudeste 27 Sudoeste 0 925.4 -- 42
2020-07-12 06:00:00 22.5 3 Oeste 35 Sudeste 0 925.4 -- 42
2020-07-12 05:00:00 -- 18 Sudeste 35 Sudeste 0 925.3 -- --
2020-07-12 04:00:00 22.5 19 Este 42 Sur 0 925.3 -- 41
2020-07-12 03:00:00 23.6 37 Sur 51 Sur 0 925.4 -- 39
2020-07-12 02:00:00 24.1 11 Este 28 Sudeste 0 925.3 -- 40
2020-07-12 01:00:00 25.4 13 Sudeste 35 Sudeste 0 925.3 -- 37
2020-07-12 00:00:00 25.1 21 Sudeste 32 Sudeste 0 925.4 -- 38
2020-07-11 23:00:00 27 12 Sudeste 17 Sudeste 0 925.4 -- 34
2020-07-11 22:00:00 28.7 15 Sur 22 Sur 0 925.5 -- 30
2020-07-11 21:00:00 30.2 12 Sudoeste 27 Sudoeste 0 925.5 -- 27
2020-07-11 20:00:00 31.9 13 Sur 28 Sur 0 925.5 -- 25
2020-07-11 19:00:00 33 11 Sudoeste 35 Sur 0 925.5 0 25
2020-07-11 18:00:00 33.2 8 Sudoeste 40 Sur 0 925.5 -- 25
2020-07-11 17:00:00 33.5 13 Sudeste 27 Sudeste 0 925.5 -- 26
2020-07-11 16:00:00 -- 8 Oeste 29 Sudoeste 0 925.5 -- --
2020-07-11 15:00:00 32.6 12 Sudeste 28 Este 0 925.5 -- 28
2020-07-11 14:00:00 31.7 7 Sudeste 38 Sudeste 0 925.5 -- 30
2020-07-11 13:00:00 30.8 12 Sudeste 26 Sur 0 925.5 -- 30
2020-07-11 12:00:00 30.1 10 Sudeste 23 Sudeste 0 925.4 -- 32
2020-07-11 11:00:00 27.8 14 Sudeste 22 Este 0 925.4 -- 35
2020-07-11 10:00:00 26.4 14 Sur 22 Sur 0 925.2 -- 38
2020-07-11 09:00:00 24.1 16 Sudeste 22 Sur 0 925.3 -- 41
2020-07-11 08:00:00 22.8 4 Sudeste 18 Sur 0 925.3 -- 42
2020-07-11 07:00:00 21.8 8 Sudeste 21 Sudeste 0 925.3 -- 43
2020-07-11 06:00:00 21.2 5 Sudeste 14 Sudeste 0 925.3 -- 43
2020-07-11 05:00:00 20.3 5 Nordeste 13 Este 0 925.3 -- 42
2020-07-11 04:00:00 21 5 Este 15 Sur 0 925.4 -- 39
2020-07-11 03:00:00 -- 4 Nordeste 15 Sudeste 0 925.4 -- --
2020-07-11 02:00:00 22.7 9 Sudeste 15 Sudeste 0 925.4 0 34
2020-07-11 01:00:00 24.4 5 Este 9 Nordeste 0 925.4 -- 32
2020-07-11 00:00:00 25.7 5 Norte 12 Nordeste 0 925.4 -- 30
2020-07-10 23:00:00 26.7 5 Oeste 13 Oeste 0 925.4 -- 30
2020-07-10 22:00:00 28.2 4 Nordeste 11 Norte 0 925.4 -- 28
2020-07-10 21:00:00 30.1 5 Norte 19 Noroeste 0 925.4 -- 28
2020-07-10 20:00:00 29.6 9 Nordeste 17 Nordeste 0 925.4 -- 28
2020-07-10 19:00:00 31.5 4 Noroeste 19 Oeste 0 925.5 -- 27
2020-07-10 18:00:00 31.8 6 Noroeste 23 Noroeste 0 925.5 -- 26
2020-07-10 17:00:00 31.6 5 Sudoeste 23 Sudoeste 0 925.4 -- 26
2020-07-10 16:00:00 29.4 11 Norte 23 Norte 0 925.4 -- 27
2020-07-10 15:00:00 29.2 7 Noroeste 18 Oeste 0 925.5 -- 29
2020-07-10 14:00:00 28.5 7 Noroeste 26 Noroeste 0 925.5 0.1 31
2020-07-10 13:00:00 28.9 8 Oeste 15 Sudoeste 0 925.3 -- 34
2020-07-10 12:00:00 -- 3 Nordeste 11 Noroeste 0 925.4 -- --
2020-07-10 11:00:00 24.9 2 Este 10 Sudeste 0 925.4 0 41
2020-07-10 10:00:00 22.5 3 Sudeste 8 Sudeste 0 925.3 -- 46
2020-07-10 09:00:00 18.8 0 Calma 6 Noroeste 0 925.4 -- 56
2020-07-10 08:00:00 14.3 5 Sudoeste 8 Sudoeste 0 925.4 -- 65
2020-07-10 07:00:00 13.3 4 Oeste 10 Noroeste 0 925.4 -- 65
2020-07-10 06:00:00 15.5 4 Nordeste 8 Este 0 925.3 -- 58
2020-07-10 05:00:00 16.3 4 Nordeste 15 Este 0 925.4 -- 59
2020-07-10 04:00:00 16.1 0 Calma 4 Sudoeste 0 925.4 -- 60
2020-07-10 03:00:00 16.4 0 Calma 5 Norte 0 925.4 -- 57
2020-07-10 02:00:00 17.9 4 Nordeste 15 Norte 0 925.4 -- 54
2020-07-10 01:00:00 18.7 8 Nordeste 18 Nordeste 0 925.4 -- 48
2020-07-10 00:00:00 19.5 11 Nordeste 29 Nordeste 0 925.3 -- 46
2020-07-09 23:00:00 21 17 Nordeste 33 Nordeste 0 925.3 -- 41
2020-07-09 22:00:00 23.6 9 Sudoeste 21 Sudoeste 0 925.4 -- 30
2020-07-09 21:00:00 25.4 12 Sudoeste 24 Sudoeste 0 925.4 -- 28
2020-07-09 20:00:00 27.6 9 Sudoeste 24 Sudoeste 0 925.4 -- 27
2020-07-09 19:00:00 30.3 8 Oeste 33 Noroeste 0 925.4 -- 28
2020-07-09 18:00:00 28.6 0 Calma 22 Noroeste 0 925.5 -- 29
2020-07-09 17:00:00 29.3 10 Noroeste 24 Noroeste 0 925.5 -- 29
2020-07-09 16:00:00 30.1 3 Oeste 19 Este 0 925.5 -- 30
2020-07-09 15:00:00 27.2 2 Oeste 20 Nordeste 0 925.5 -- 31
2020-07-09 14:00:00 28.5 7 Este 22 Noroeste 0 925.5 -- 32
2020-07-09 13:00:00 27.2 5 Noroeste 14 Noroeste 0 925.5 -- 34
2020-07-09 12:00:00 25.9 3 Nordeste 20 Noroeste 0 925.4 -- 36
2020-07-09 11:00:00 23.9 7 Noroeste 16 Oeste 0 925.5 -- 37
2020-07-09 10:00:00 23.5 2 Nordeste 8 Nordeste 0 925.4 -- 38
2020-07-09 09:00:00 21.3 4 Nordeste 8 Nordeste 0 925.4 -- 41
2020-07-09 08:00:00 19.4 2 Oeste 9 Noroeste 0 925.3 -- 44
2020-07-09 07:00:00 17 4 Norte 18 Sudoeste 0 925.4 -- 44
2020-07-09 06:00:00 17.7 12 Sudoeste 16 Sudoeste 0 925.2 -- 43
2020-07-09 05:00:00 18.5 12 Sudoeste 35 Sudoeste 0 925.3 -- 36
2020-07-09 04:00:00 19.5 22 Sudoeste 30 Sudoeste 0 925.4 -- 34
2020-07-09 03:00:00 19.3 8 Sudoeste 28 Sur 0 925.4 -- 34
2020-07-09 02:00:00 20.8 18 Sur 26 Sur 0 925.3 -- 34
2020-07-09 01:00:00 22.4 18 Sudoeste 29 Sudoeste 0 925.4 -- 32
2020-07-09 00:00:00 23.6 11 Oeste 19 Sudoeste 0 925.4 -- 34
2020-07-08 23:00:00 -- 11 Sur 17 Sur 0 925.4 -- --
2020-07-08 22:00:00 25.9 13 Sur 27 Sur 0 925.4 -- 30
2020-07-08 21:00:00 27.6 16 Sur 36 Sur 0 925.5 -- 28
2020-07-08 20:00:00 28.1 11 Sur 37 Oeste 0 925.4 -- 28
2020-07-08 19:00:00 29.8 23 Sudoeste 40 Sudoeste 0 925.5 -- 27
2020-07-08 18:00:00 29.4 30 Sudoeste 48 Sudoeste 0 925.5 -- 27
2020-07-08 17:00:00 33 22 Sudoeste 42 Sudoeste 0 925.6 -- 26
2020-07-08 16:00:00 34 21 Sudoeste 44 Sur 0 925.4 -- 26
2020-07-08 15:00:00 33.9 27 Sur 48 Sur 0 925.5 -- 26
2020-07-08 14:00:00 32.1 30 Sur 46 Sur 0 925.5 -- 26
2020-07-08 13:00:00 33.4 28 Sur 40 Sur 0 925.5 -- 26
2020-07-08 12:00:00 32.1 24 Sur 37 Sudeste 0 925.5 -- 27
2020-07-08 11:00:00 30.8 21 Sudeste 33 Sudeste 0 925.4 -- 28
2020-07-08 10:00:00 29.3 14 Sudeste 26 Sudeste 0 925.4 -- 30
2020-07-08 09:00:00 -- 10 Sudeste 26 Este 0 925.4 -- --
2020-07-08 08:00:00 24.9 22 Sudeste 31 Sudeste 0 925.4 -- 32
2020-07-08 07:00:00 24.5 14 Este 26 Sudeste 0 925.3 -- 34
2020-07-08 06:00:00 22.6 0 Calma 9 Oeste 0 925.4 -- 35
2020-07-08 05:00:00 23.9 4 Sudeste 9 Este 0 925.3 -- 34
2020-07-08 04:00:00 22.5 6 Nordeste 10 Nordeste 0 925.4 -- 34
2020-07-08 03:00:00 24 0 Calma 7 Nordeste 0 925.4 -- 32
2020-07-08 02:00:00 25.7 0 Calma 5 Nordeste 0 925.4 -- 32
2020-07-08 01:00:00 26.1 0 Calma 8 Sudoeste 0 925.4 -- 31
2020-07-08 00:00:00 27.2 4 Sudoeste 7 Sudoeste 0 925.4 -- 30
2020-07-07 23:00:00 28 6 Sudoeste 16 Oeste 0 925.5 -- 28
2020-07-07 22:00:00 30.6 11 Oeste 17 Oeste 0 925.5 -- 26
2020-07-07 21:00:00 32.8 7 Noroeste 29 Oeste 0 925.5 -- 24
2020-07-07 20:00:00 33.6 14 Noroeste 30 Sudoeste 0 925.5 -0.1 24
2020-07-07 19:00:00 34.3 17 Oeste 32 Oeste 0 925.5 -0.1 23
2020-07-07 18:00:00 35.2 13 Oeste 40 Oeste 0 925.6 0 23
2020-07-07 17:00:00 35 9 Oeste 37 Noroeste 0 925.6 0.2 24
2020-07-07 16:00:00 34.4 8 Norte 28 Oeste 0 925.6 0 24
2020-07-07 15:00:00 35.3 7 Oeste 31 Sudoeste 0 925.6 -0.4 24
2020-07-07 14:00:00 33.8 4 Norte 25 Noroeste 0 925.4 -0.3 25
2020-07-07 13:00:00 32.9 8 Oeste 21 Oeste 0 925.6 -0.4 26
2020-07-07 12:00:00 31.8 3 Nordeste 15 Norte 0 926 0.5 29
2020-07-07 11:00:00 29.7 3 Norte 9 Este 0 925.7 0.7 29
2020-07-07 10:00:00 27.6 4 Nordeste 10 Este 0 926 0.9 31
2020-07-07 09:00:00 24 4 Nordeste 6 Nordeste 0 925.5 0.4 34
2020-07-07 08:00:00 20.9 4 Nordeste 7 Este 0 925 -0.1 33
2020-07-07 07:00:00 21.5 0 Calma 5 Oeste 0 925.1 -- 32
2020-07-07 06:00:00 21.6 5 Oeste 17 Oeste 0 925.1 -- 32
2020-07-07 05:00:00 23.1 9 Oeste 15 Oeste 0 925.1 -- 31
2020-07-07 04:00:00 24 10 Oeste 20 Oeste 0 925 -- 30
2020-07-07 03:00:00 24.3 13 Oeste 21 Oeste 0 925.1 -- 30
2020-07-07 02:00:00 23.6 8 Oeste 13 Oeste 0 925.1 -- 30
2020-07-07 01:00:00 26.1 3 Sudoeste 7 Norte 0 925.3 -- 28
2020-07-07 00:00:00 26.4 5 Norte 13 Oeste 0 925.7 -- 30
2020-07-06 23:00:00 26.4 11 Oeste 18 Sudoeste 0 925.3 -- 30
2020-07-06 22:00:00 29.1 8 Oeste 21 Sudoeste 0 924.9 -- 29
2020-07-06 21:00:00 30.6 11 Sudoeste 27 Sudoeste 0 924.1 -- 27
2020-07-06 20:00:00 31.7 17 Sudoeste 26 Sudoeste 0 924.2 -- 26
2020-07-06 19:00:00 32.9 10 Norte 25 Noroeste 0 924.6 -- 24
2020-07-06 18:00:00 32.9 5 Norte 22 Noroeste 0 924.8 -- 24
2020-07-06 17:00:00 34 9 Noroeste 25 Norte 0 925.3 -- 24
2020-07-06 16:00:00 32.4 10 Nordeste 26 Norte 0 925.5 -- 25
2020-07-06 15:00:00 32.2 10 Norte 34 Nordeste 0 926.2 -- 26
2020-07-06 14:00:00 31.8 4 Nordeste 20 Noroeste 0 926.3 -- 27
2020-07-06 13:00:00 31.9 9 Oeste 21 Oeste 0 926.6 -- 28
2020-07-06 12:00:00 30.6 5 Noroeste 15 Norte 0 926.9 -- 30
2020-07-06 11:00:00 29.5 2 Sur 8 Noroeste 0 927.5 -- 31
2020-07-06 10:00:00 27.9 0 Calma 8 Sur 0 927 -- 34
2020-07-06 09:00:00 23.6 4 Nordeste 6 Nordeste 0 926.8 -- 37
2020-07-06 08:00:00 20.7 4 Nordeste 6 Nordeste 0 927.1 -- 38
2020-07-06 07:00:00 19.9 3 Norte 4 Norte 0 926.5 -- 38
2020-07-06 06:00:00 20.9 0 Calma 4 Norte 0 926.3 -- 37
2020-07-06 05:00:00 20.9 3 Norte 5 Noroeste 0 926.4 -- 38
2020-07-06 04:00:00 20.6 4 Sur 11 Sudeste 0 926.5 -- 37
2020-07-06 03:00:00 22.2 10 Sudeste 17 Este 0 927 -- 36
2020-07-06 02:00:00 23.7 10 Oeste 14 Oeste 0 926.7 -- 34
2020-07-06 01:00:00 24.9 10 Oeste 18 Oeste 0 926.9 -- 33
2020-07-06 00:00:00 25.1 13 Oeste 18 Oeste 0 926.9 -- 32
2020-07-05 23:00:00 25.6 11 Oeste 15 Sudoeste 0 926.9 -- 31
2020-07-05 22:00:00 27.9 4 Sudoeste 21 Sur 0 926.4 -- 30
2020-07-05 21:00:00 29.8 13 Sudoeste 22 Sur 0 926 -- 27
2020-07-05 20:00:00 30.6 8 Sur 29 Sur 0 925.9 -- 26
2020-07-05 19:00:00 31.7 10 Sudoeste 27 Sur 0 926.4 -- 26
2020-07-05 18:00:00 31.8 15 Sur 31 Sudeste 0 926.5 -- 26
2020-07-05 17:00:00 32.6 17 Sudeste 28 Sur 0 927.2 -- 26
2020-07-05 16:00:00 32.2 14 Sudeste 32 Sur 0 927.4 -- 27
2020-07-05 15:00:00 31.9 12 Sur 29 Sudeste 0 927.6 -- 28
2020-07-05 14:00:00 31.5 13 Sudoeste 32 Sudoeste 0 928.5 -- 28
2020-07-05 13:00:00 31.2 12 Sudeste 24 Sur 0 928.8 -- 30
2020-07-05 12:00:00 30.2 7 Sur 16 Sur 0 929 -- 30
2020-07-05 11:00:00 28 4 Norte 18 Este 0 929.1 -- 32
2020-07-05 10:00:00 25.5 3 Nordeste 6 Norte 0 929.1 -- 34
2020-07-05 09:00:00 22 3 Nordeste 8 Norte 0 929 -- 37
2020-07-05 08:00:00 18 4 Nordeste 5 Norte 0 928.5 -- 38
2020-07-05 07:00:00 16.8 4 Nordeste 7 Nordeste 0 928.6 -- 38
2020-07-05 06:00:00 17.4 4 Nordeste 6 Nordeste 0 928.5 -- 37
2020-07-05 05:00:00 19.1 5 Sur 7 Sur 0 928.5 -- 36
2020-07-05 04:00:00 19.3 4 Norte 20 Sudeste 0 928.3 -- 35
2020-07-05 03:00:00 21.8 15 Sudeste 19 Sudeste 0 928.6 -- 34
2020-07-05 02:00:00 22.2 6 Este 10 Este 0 929.1 -- 30
2020-07-05 01:00:00 23.9 5 Este 9 Este 0 929.1 -- 27
2020-07-05 00:00:00 23.9 3 Sudeste 6 Oeste 0 928.9 -- 27
2020-07-04 23:00:00 26.8 4 Norte 18 Norte 0 928.5 -- 26
2020-07-04 22:00:00 27.3 4 Noroeste 15 Sur 0 928 -- 26
2020-07-04 21:00:00 28.5 13 Sur 23 Sur 0 927.5 -- 24
2020-07-04 20:00:00 29.7 14 Sur 24 Sur 0 927.3 -- 24
2020-07-04 19:00:00 31.6 6 Sur 17 Oeste 0 927.5 -- 24
2020-07-04 18:00:00 31.6 5 Sudeste 22 Sudeste 0 927.9 -- 24
2020-07-04 17:00:00 31.3 6 Noroeste 23 Noroeste 0 928 -- 24
2020-07-04 16:00:00 30.5 5 Nordeste 21 Este 0 929 -- 23
2020-07-04 15:00:00 30 9 Norte 21 Este 0 929.4 -- 24
2020-07-04 14:00:00 29.7 9 Este 18 Este 0 929.6 -- 26
2020-07-04 13:00:00 28.6 5 Norte 16 Nordeste 0 929.9 -- 27
2020-07-04 12:00:00 27.1 2 Noroeste 11 Noroeste 0 930.2 -- 29
2020-07-04 11:00:00 26 3 Nordeste 10 Nordeste 0 929.9 -- 31
2020-07-04 10:00:00 23.1 2 Norte 6 Nordeste 0 929.7 -- 33
2020-07-04 09:00:00 20 4 Nordeste 7 Este 0 929.7 -- 36
2020-07-04 08:00:00 16.5 4 Nordeste 6 Norte 0 929.2 -- 37
2020-07-04 07:00:00 15.1 3 Este 9 Nordeste 0 929 -- 36
2020-07-04 06:00:00 16.6 3 Nordeste 6 Nordeste 0 928.8 -- 34
2020-07-04 05:00:00 17.9 0 Calma 3 Oeste 0 928.8 -- 33
2020-07-04 04:00:00 17.7 0 Calma 13 Oeste 0 928.5 -- 33
2020-07-04 03:00:00 17.9 8 Oeste 14 Oeste 0 928.5 -- 31
2020-07-04 02:00:00 16.7 6 Sudoeste 10 Oeste 0 928.8 -- 30
2020-07-04 01:00:00 19.6 8 Oeste 9 Oeste 0 928.7 -- 28
2020-07-04 00:00:00 21.5 4 Oeste 12 Oeste 0 928.8 -- 28
2020-07-03 23:00:00 23.4 6 Oeste 12 Sudoeste 0 927.5 -- 27
2020-07-03 22:00:00 24.2 8 Oeste 16 Oeste 0 927.4 -- 25
2020-07-03 21:00:00 27.7 9 Oeste 21 Oeste 0 926.9 -- 24
2020-07-03 20:00:00 29.8 10 Noroeste 22 Noroeste 0 926.5 -- 25
2020-07-03 19:00:00 29.7 8 Oeste 25 Sudoeste 0 925.9 -- 25
2020-07-03 18:00:00 30 9 Oeste 23 Oeste 0 926.4 -- 25
2020-07-03 17:00:00 29.3 5 Sudoeste 21 Oeste 0 926.6 -- 25
2020-07-03 16:00:00 29.1 8 Sudoeste 27 Oeste 0 926.7 -- 26
2020-07-03 15:00:00 28.7 11 Sur 27 Este 0 926.9 -- 28
2020-07-03 14:00:00 27.5 6 Sudoeste 23 Sudoeste 0 927.5 -- 30
2020-07-03 13:00:00 26.3 5 Sudoeste 23 Sudeste 0 927.7 -- 32
2020-07-03 12:00:00 25.4 10 Este 21 Este 0 927.3 -- 35
2020-07-03 11:00:00 24.1 0 Calma 18 Nordeste 0 927.5 -- 36
2020-07-03 10:00:00 22.6 2 Sur 9 Sudeste 0 927.5 -- 38
2020-07-03 09:00:00 18.8 4 Oeste 9 Sudoeste 0 927 -- 43
2020-07-03 08:00:00 14.7 5 Sudoeste 12 Noroeste 0 927.2 -- 47
2020-07-03 07:00:00 14.7 0 Calma 9 Sudoeste 0 926.5 -- 47
2020-07-03 06:00:00 16.4 8 Oeste 13 Oeste 0 926.4 -- 44
2020-07-03 05:00:00 16.3 3 Oeste 10 Noroeste 0 927 -- 43
2020-07-03 04:00:00 17.8 3 Noroeste 17 Oeste 0 926.5 -- 43
2020-07-03 03:00:00 17.6 12 Oeste 17 Oeste 0 926.9 -- 41
2020-07-03 02:00:00 17.9 9 Oeste 18 Oeste 0 926.7 -- 40
2020-07-03 01:00:00 19 14 Oeste 17 Oeste 0 926.5 -- 35
2020-07-03 00:00:00 20.3 9 Oeste 13 Oeste 0 926.4 -- 32
2020-07-02 23:00:00 22.1 8 Oeste 14 Oeste 0 925.9 -- 30
2020-07-02 22:00:00 24.3 10 Noroeste 27 Noroeste 0 925.3 -- 30
2020-07-02 21:00:00 26.4 15 Noroeste 32 Noroeste 0 925.2 -- 28
2020-07-02 20:00:00 28.1 16 Noroeste 33 Oeste 0 924.6 -- 27
2020-07-02 19:00:00 28.2 19 Oeste 39 Oeste 0 924.4 -- 26
2020-07-02 18:00:00 29.6 17 Noroeste 39 Oeste 0 924.2 -- 26
2020-07-02 17:00:00 29.6 15 Oeste 42 Sudoeste 0 924.3 -- 25
2020-07-02 16:00:00 29.9 17 Oeste 39 Sudoeste 0 925.2 -- 26
2020-07-02 15:00:00 28.8 18 Oeste 43 Sudoeste 0 925.5 -- 27
2020-07-02 14:00:00 27.9 21 Sudoeste 41 Sudoeste 0 925.8 -- 28
2020-07-02 13:00:00 27.2 22 Sudoeste 43 Sudoeste 0 926.3 -- 30
2020-07-02 12:00:00 26.2 18 Oeste 37 Sudoeste 0 925.8 -- 34
2020-07-02 11:00:00 25.4 15 Oeste 27 Oeste 0 925.9 -- 34
2020-07-02 10:00:00 24.8 5 Noroeste 17 Sudoeste 0 925.6 -- 38
2020-07-02 09:00:00 23.2 0 Calma 6 Norte 0 925.7 -- 40
2020-07-02 08:00:00 19.3 2 Oeste 5 Oeste 0 925.2 -- 42
2020-07-02 07:00:00 18.2 0 Calma 4 Sudoeste 0 924.9 -- 42
2020-07-02 06:00:00 19 0 Calma 5 Oeste 0 924.5 -- 40
2020-07-02 05:00:00 18.1 3 Sudoeste 12 Oeste 0 924.3 -- 38
2020-07-02 04:00:00 20 3 Noroeste 6 Noroeste 0 924.3 -- 37
2020-07-02 03:00:00 21.1 0 Calma 7 Sudoeste 0 924.3 -- 36
2020-07-02 02:00:00 22 8 Oeste 14 Oeste 0 924.5 -- 33
2020-07-02 01:00:00 22.9 5 Oeste 18 Oeste 0 924.9 -- 32
2020-07-02 00:00:00 23.4 12 Sudoeste 30 Sudoeste 0 924.7 -- 30
2020-07-01 23:00:00 23.6 17 Sudoeste 30 Sudoeste 0 924.5 -- 29
2020-07-01 22:00:00 24.7 23 Sudoeste 32 Sudoeste 0 923.8 -- 29
2020-07-01 21:00:00 26.4 27 Sudoeste 36 Sudoeste 0 923.6 -- 28
2020-07-01 20:00:00 28.1 26 Sudoeste 36 Sur 0 923.1 -- 28
2020-07-01 19:00:00 29.7 21 Sudoeste 32 Sudoeste 0 923 -- 28
2020-07-01 18:00:00 30.4 17 Sudoeste 35 Sudoeste 0 923.2 -- 28
2020-07-01 17:00:00 30.3 17 Sudoeste 32 Sur 0 923.7 -- 28
2020-07-01 16:00:00 30 16 Sudoeste 32 Sur 0 924.1 -- 29
2020-07-01 15:00:00 29.9 15 Oeste 32 Sudoeste 0 924.3 -- 30
2020-07-01 14:00:00 29.2 13 Sudoeste 27 Sudoeste 0 924.4 -- 32
2020-07-01 13:00:00 27.1 12 Sudoeste 30 Sudoeste 0 925 -- 34
2020-07-01 12:00:00 25.7 17 Sudoeste 29 Sudoeste 0 925 -- 36
2020-07-01 11:00:00 26.3 5 Sudeste 37 Sudeste 0 924.3 -- 40
2020-07-01 10:00:00 24.4 6 Sudeste 15 Sur 0 924.6 -- 44
2020-07-01 09:00:00 22.1 3 Sudeste 6 Sudeste 0 924.9 -- 49
2020-07-01 08:00:00 18.1 3 Norte 6 Este 0 923.9 -- 58
2020-07-01 07:00:00 17.5 3 Nordeste 10 Sudeste 0 923.6 -- 57
2020-07-01 06:00:00 18.2 5 Este 8 Este 0 923.1 -- 51
2020-07-01 05:00:00 20.2 4 Sudoeste 10 Sudoeste 0 923 -- 46
2020-07-01 04:00:00 20.4 4 Sudoeste 12 Este 0 922.7 -- 41
2020-07-01 03:00:00 22.2 2 Sur 17 Sudoeste 0 922.9 -- 37
2020-07-01 02:00:00 22.4 9 Oeste 17 Oeste 0 923.1 -- 36
2020-07-01 01:00:00 23.4 14 Oeste 31 Sudoeste 0 923.2 -- 34
2020-07-01 00:00:00 24.1 22 Sudoeste 34 Sudoeste 0 922.3 -- 31
2020-06-30 23:00:00 24.3 22 Sudoeste 31 Sudoeste 0 922.1 -- 32
2020-06-30 22:00:00 25.4 17 Sudoeste 29 Sudoeste 0 921.7 -- 30
2020-06-30 21:00:00 27.5 21 Sudoeste 33 Sudoeste 0 921.5 -- 28
2020-06-30 20:00:00 29.7 23 Sudoeste 35 Sudoeste 0 921.4 -- 26
2020-06-30 19:00:00 30.3 20 Sudoeste 35 Sudoeste 0 921.1 -- 26
2020-06-30 18:00:00 31.7 20 Sudoeste 36 Sur 0 921.8 -- 26
2020-06-30 17:00:00 31.7 21 Sudoeste 40 Sudoeste 0 921.5 -- 26
2020-06-30 16:00:00 31.7 21 Sudoeste 33 Sur 0 922 -- 26
2020-06-30 15:00:00 32.2 17 Sudoeste 32 Sur 0 922.4 -- 27
2020-06-30 14:00:00 30.7 13 Sudoeste 26 Sudoeste 0 922.9 -- 28
2020-06-30 13:00:00 30.3 16 Sudeste 27 Sur 0 923.1 -- 30
2020-06-30 12:00:00 30.4 12 Sudeste 22 Sudeste 0 923 -- 30
2020-06-30 11:00:00 29.6 8 Sudeste 24 Sudeste 0 922.9 -- 32
2020-06-30 10:00:00 27.9 0 Calma 10 Sudeste 0 923.1 -- 34
2020-06-30 09:00:00 24.6 3 Este 10 Este 0 923 -- 37
2020-06-30 08:00:00 19.6 5 Nordeste 9 Nordeste 0 923.2 -- 40
2020-06-30 07:00:00 18.8 5 Nordeste 8 Nordeste 0 922.9 -- 38
2020-06-30 06:00:00 20.1 4 Nordeste 10 Este 0 923.2 -- 36
2020-06-30 05:00:00 22.4 2 Este 17 Sur 0 922.8 -- 34
2020-06-30 04:00:00 21.3 5 Sur 9 Sur 0 922.8 -- 35
2020-06-30 03:00:00 23.1 7 Sudeste 12 Sudeste 0 923.3 -- 34
2020-06-30 02:00:00 24.1 4 Sudoeste 11 Oeste 0 923.7 -- 32
2020-06-30 01:00:00 25 3 Noroeste 12 Oeste 0 923.8 -- 30
2020-06-30 00:00:00 25.6 5 Oeste 13 Oeste 0 923.7 -- 28
2020-06-29 23:00:00 26.6 8 Oeste 14 Oeste 0 923.5 -- 27
2020-06-29 22:00:00 26.3 9 Sudoeste 18 Sur 0 923.3 -- 26
2020-06-29 21:00:00 29.8 15 Sur 24 Sudoeste 0 922.8 -- 24
2020-06-29 20:00:00 31 15 Sur 27 Sudoeste 0 922.4 -- 24
2020-06-29 19:00:00 31.9 11 Sur 27 Sudeste 0 923 -- 24
2020-06-29 18:00:00 32.7 15 Sudoeste 26 Sudoeste 0 923.6 -- 24
2020-06-29 17:00:00 32.8 14 Sur 28 Sur 0 924.2 -- 25
2020-06-29 16:00:00 32.7 13 Sudoeste 27 Sudoeste 0 924.6 -- 27
2020-06-29 15:00:00 32.5 10 Sur 29 Este 0 925.1 -- 28
2020-06-29 14:00:00 30.2 3 Norte 24 Sur 0 925.2 -- 30
2020-06-29 13:00:00 29.5 8 Nordeste 22 Nordeste 0 925.9 -- 30
2020-06-29 12:00:00 30 2 Este 14 Sudoeste 0 926.4 -- 31
2020-06-29 11:00:00 27.9 3 Sudeste 13 Sudeste 0 926.3 -- 32
2020-06-29 10:00:00 26.5 8 Este 13 Sudeste 0 926.4 -- 34
2020-06-29 09:00:00 23.7 5 Este 10 Este 0 926.2 -- 38
2020-06-29 08:00:00 19.8 2 Sur 9 Nordeste 0 926.6 -- 42
2020-06-29 07:00:00 17.4 7 Nordeste 10 Nordeste 0 925.9 -- 42
2020-06-29 06:00:00 17 6 Sudoeste 6 Sudoeste 0 925.7 -- 42
2020-06-29 05:00:00 20.5 0 Calma 10 Sur 0 925.8 -- 39
2020-06-29 04:00:00 20.5 4 Nordeste 8 Nordeste 0 926.1 -- 38
2020-06-29 03:00:00 20.6 5 Sudoeste 8 Sudoeste 0 925.9 -- 37
2020-06-29 02:00:00 20.8 6 Sudoeste 10 Sudoeste 0 926.5 -- 37
2020-06-29 01:00:00 21.3 6 Sudoeste 13 Oeste 0 926.4 -- 36
2020-06-29 00:00:00 23.9 8 Oeste 13 Noroeste 0 926.3 -- 33
2020-06-28 23:00:00 25.7 8 Oeste 14 Oeste 0 926.2 -- 31
2020-06-28 22:00:00 27 6 Oeste 20 Oeste 0 925.2 -- 30
2020-06-28 21:00:00 27.9 12 Sudoeste 37 Oeste 0 925 -- 29
2020-06-28 20:00:00 29.9 12 Sudoeste 36 Sudoeste 0 924.7 -- 27
2020-06-28 19:00:00 31.1 9 Oeste 24 Sudoeste 0 924.9 -- 27
2020-06-28 18:00:00 32.2 5 Sudoeste 19 Sudeste 0 925 -- 28
2020-06-28 17:00:00 31.7 8 Sudoeste 24 Sudoeste 0 925.3 -- 28
2020-06-28 16:00:00 30.9 7 Oeste 27 Oeste 0 925.5 -2.2 30
2020-06-28 15:00:00 29.8 8 Noroeste 22 Sudoeste 0 926.1 -- 31
2020-06-28 14:00:00 28.9 8 Sudoeste 23 Sudoeste 0 926.8 -- 32
2020-06-28 13:00:00 28.6 7 Noroeste 20 Oeste 0 927.7 -- 34
2020-06-28 12:00:00 27.5 6 Oeste 14 Sudoeste 0 927.6 -- 35
2020-06-28 11:00:00 25.6 0 Calma 9 Nordeste 0 927.6 -- 39
2020-06-28 10:00:00 23.9 3 Nordeste 8 Nordeste 0 927.3 -- 41
2020-06-28 09:00:00 21.1 3 Sudoeste 5 Sudoeste 0 927.5 -- 43
2020-06-28 08:00:00 18.7 3 Norte 6 Noroeste 0 926.9 -- 47
2020-06-28 07:00:00 16.5 3 Sudoeste 6 Oeste 0 926.8 -- 49
2020-06-28 06:00:00 17.1 4 Oeste 6 Sudoeste 0 926.8 -- 45
2020-06-28 05:00:00 17.5 4 Sudoeste 7 Oeste 0 926.5 -- 44
2020-06-28 04:00:00 18 5 Oeste 9 Oeste 0 926.8 -- 42
2020-06-28 03:00:00 19.7 3 Noroeste 11 Oeste 0 926.3 -- 40
2020-06-28 02:00:00 18.3 8 Oeste 12 Oeste 0 926.5 -- 41
2020-06-28 01:00:00 18.8 9 Sudoeste 11 Oeste 0 926.7 -- 40
2020-06-28 00:00:00 21 10 Oeste 12 Oeste 0 926.6 -- 37
2020-06-27 23:00:00 22.7 5 Oeste 17 Noroeste 0 926.3 -- 35
2020-06-27 22:00:00 24.8 11 Noroeste 22 Oeste 0 925.3 -- 32
2020-06-27 21:00:00 26.4 10 Oeste 22 Noroeste 0 925.2 -- 30
2020-06-27 20:00:00 27.8 7 Noroeste 26 Sudoeste 0 925 -- 30
2020-06-27 19:00:00 28.4 6 Oeste 23 Oeste 0 924.9 -- 29
2020-06-27 18:00:00 29.5 12 Noroeste 24 Noroeste 0 925 -- 28
2020-06-27 17:00:00 28.2 9 Noroeste 28 Noroeste 0 925.2 -- 28
2020-06-27 16:00:00 29 7 Oeste 25 Sudoeste 0 925.7 -- 29
2020-06-27 15:00:00 27.4 13 Sudoeste 25 Sudoeste 0 925.8 -- 30
2020-06-27 14:00:00 25.7 8 Noroeste 22 Noroeste 0 926.1 -- 32
2020-06-27 13:00:00 24.8 8 Noroeste 21 Noroeste 0 926.9 -- 33
2020-06-27 12:00:00 23.9 8 Noroeste 22 Sudoeste 0 927.1 -- 34
2020-06-27 11:00:00 21.9 8 Sudoeste 14 Sur 0 926.6 -- 39
2020-06-27 10:00:00 20.2 4 Noroeste 13 Noroeste 0 927 -- 42
2020-06-27 09:00:00 18.3 2 Sudoeste 6 Sudoeste 0 926.5 -- 42
2020-06-27 08:00:00 15.7 0 Calma 6 Oeste 0 926.1 -- 44
2020-06-27 07:00:00 12.5 3 Sur 6 Oeste 0 926.1 -- 44
2020-06-27 06:00:00 14.4 0 Calma 4 Oeste 0 925.6 -- 41
2020-06-27 05:00:00 16.1 2 Sudoeste 8 Oeste 0 925.5 -- 39
2020-06-27 04:00:00 16.6 5 Oeste 9 Oeste 0 925.4 -- 40
2020-06-27 03:00:00 16.3 8 Oeste 12 Oeste 0 925.5 -- 42
2020-06-27 02:00:00 16.6 4 Sudoeste 9 Oeste 0 925.6 -- 41
2020-06-27 01:00:00 17.8 5 Sudoeste 17 Oeste 0 926.1 -- 40
2020-06-27 00:00:00 19.6 10 Oeste 20 Oeste 0 925.4 -- 37
2020-06-26 23:00:00 19.8 13 Oeste 26 Sudoeste 0 924.8 -- 36
2020-06-26 22:00:00 21.1 19 Sudoeste 31 Sudoeste 0 923.8 -- 36
2020-06-26 21:00:00 22.7 18 Sudoeste 32 Sudoeste 0 923.4 -- 40
2020-06-26 20:00:00 23.9 22 Sudoeste 34 Sudoeste 0 923 -- 37
2020-06-26 19:00:00 26 20 Sudoeste 41 Sudoeste 0 922.8 -- 32
2020-06-26 18:00:00 26.6 13 Sudoeste 32 Sudoeste 0 923 -- 31
2020-06-26 17:00:00 26.5 16 Sudoeste 34 Sudoeste 0 923.6 -- 30
2020-06-26 16:00:00 27 14 Sur 39 Sudoeste 0 923.7 -- 30
2020-06-26 15:00:00 26 17 Sudoeste 31 Sudoeste 0 924.1 -- 33
2020-06-26 14:00:00 25.6 15 Sudoeste 30 Sudoeste 0 924.1 -- 34
2020-06-26 13:00:00 24.7 15 Sur 28 Sudoeste 0 924.6 -- 38
2020-06-26 12:00:00 24 4 Oeste 23 Sudeste 0 924.3 -- 44
2020-06-26 11:00:00 22.1 11 Este 21 Este 0 924.4 -- 51
2020-06-26 10:00:00 21.1 11 Este 18 Este 0 924.7 -- 54
2020-06-26 09:00:00 20.4 9 Sudeste 12 Sudeste 0 924.9 -- 58
2020-06-26 08:00:00 17.4 6 Sudeste 14 Sudeste 0 925 -- 68
2020-06-26 07:00:00 15.8 6 Este 9 Este 0 924.7 -- 70
2020-06-26 06:00:00 16.4 5 Este 9 Este 0 924.5 -- 64
2020-06-26 05:00:00 18.4 0 Calma 12 Sudoeste 0 924.4 -- 60
2020-06-26 04:00:00 16.5 8 Sudoeste 10 Sudoeste 0 924.4 -- 57
2020-06-26 03:00:00 20.1 2 Noroeste 9 Oeste 0 924.6 -- 48
2020-06-26 02:00:00 21.3 0 Calma 17 Sudoeste 0 924.8 -- 45
2020-06-26 01:00:00 20.7 14 Sudoeste 19 Sudoeste 0 924.3 -- 44
2020-06-26 00:00:00 21.6 13 Sudoeste 20 Sur 0 924.5 -- 41
2020-06-25 23:00:00 22.8 6 Sur 24 Sudoeste 0 923.8 -- 38
2020-06-25 22:00:00 23.2 13 Sudoeste 28 Sudoeste 0 922.9 -- 35
2020-06-25 21:00:00 25.9 22 Sudoeste 31 Sudoeste 0 922.3 -- 31
2020-06-25 20:00:00 28.1 17 Sudoeste 32 Sudoeste 0 922.3 -- 28
2020-06-25 19:00:00 29.7 17 Sudoeste 38 Sudoeste 0 922.4 -- 28
2020-06-25 18:00:00 30.1 14 Sur 31 Sudoeste 0 922.7 -- 28
2020-06-25 17:00:00 30.4 14 Sur 31 Sur 0 923.2 -- 28
2020-06-25 16:00:00 29.6 9 Sur 32 Sudoeste 0 923.9 -- 29
2020-06-25 15:00:00 29.2 10 Sudoeste 30 Sudeste 0 924 -- 28
2020-06-25 14:00:00 29 20 Sur 31 Sudoeste 0 924.6 -- 30
2020-06-25 13:00:00 27.4 12 Sudoeste 27 Sur 0 925 -- 31
2020-06-25 12:00:00 27.1 5 Sur 17 Sur 0 924.9 -- 32
2020-06-25 11:00:00 25.9 6 Sur 16 Sudoeste 0 925 -- 34
2020-06-25 10:00:00 24.7 3 Sudoeste 12 Sudoeste 0 925.1 -- 36
2020-06-25 09:00:00 23.8 0 Calma 5 Norte 0 924.9 -- 40
2020-06-25 08:00:00 21.8 0 Calma 4 Este 0 924.4 -- 41
2020-06-25 07:00:00 20.7 2 Sur 10 Sur 0 924.8 -- 41
2020-06-25 06:00:00 20.3 5 Sudoeste 24 Sur 0 924.4 -- 42
2020-06-25 05:00:00 20.7 13 Sur 25 Sur 0 924.4 -- 41
2020-06-25 04:00:00 21.6 24 Sur 39 Sur 0 924.6 -- 40
2020-06-25 03:00:00 21.6 21 Sur 35 Sur 0 924.4 -- 40
2020-06-25 02:00:00 21.9 32 Sur 40 Sur 0 924.6 -- 34
2020-06-25 01:00:00 22.5 22 Sur 28 Sur 0 924.6 -- 33
2020-06-25 00:00:00 23.4 9 Sudeste 23 Sudeste 0 924.5 -- 32
2020-06-24 23:00:00 23.6 12 Sudeste 21 Sudeste 0 924 -- 32
2020-06-24 22:00:00 25.4 13 Sudeste 27 Sudeste 0 923.9 -- 30
2020-06-24 21:00:00 27.6 21 Sudeste 27 Sudeste 0 923.6 -- 28
2020-06-24 20:00:00 29.9 6 Nordeste 15 Este 0 923.1 -- 26
2020-06-24 19:00:00 30.2 2 Nordeste 21 Nordeste 0 923.6 -- 27
2020-06-24 18:00:00 28.4 14 Norte 24 Norte 0 924.3 -- 28
2020-06-24 17:00:00 26.6 12 Noroeste 31 Nordeste 0.7 924.5 -- 30
2020-06-24 16:00:00 31.3 4 Nordeste 19 Sudeste 0.1 924 -- 25
2020-06-24 15:00:00 31.1 8 Nordeste 26 Este 0 924.7 -- 26
2020-06-24 14:00:00 30.1 4 Sudeste 26 Sudeste 0 924.6 -- 26
2020-06-24 13:00:00 30.1 10 Sudeste 23 Sudeste 0 925.2 -- 27
2020-06-24 12:00:00 29.6 11 Sudeste 23 Sudeste 0 925.1 -- 28
2020-06-24 11:00:00 27.5 7 Sudeste 18 Sur 0 925.4 -- 30
2020-06-24 10:00:00 26.8 5 Sudeste 13 Sudeste 0 925.5 -- 30
2020-06-24 09:00:00 24 3 Sur 6 Sur 0 925.4 -- 33
2020-06-24 08:00:00 20.8 3 Sudeste 11 Sudeste 0 925.4 -- 36
2020-06-24 07:00:00 19 4 Sudoeste 15 Sudoeste 0 925.5 -- 36
2020-06-24 06:00:00 20.5 10 Oeste 19 Oeste 0 924.8 -- 34
2020-06-24 05:00:00 21.7 6 Oeste 23 Sur 0 924.3 -- 33
2020-06-24 04:00:00 22.1 18 Sur 27 Sur 0 924.2 -- 32
2020-06-24 03:00:00 23.5 11 Sur 28 Sudoeste 0 924.9 -- 31
2020-06-24 02:00:00 24 9 Sudoeste 27 Sudoeste 0 924.6 -- 31
2020-06-24 01:00:00 24.1 7 Sur 24 Sudeste 0 924.8 -- 32
2020-06-24 00:00:00 25.7 15 Sur 35 Sur 0 924.3 -- 31
2020-06-23 23:00:00 27.1 23 Sudeste 37 Este 0 923.8 -- 29
2020-06-23 22:00:00 28.2 12 Nordeste 20 Nordeste 0 923.7 -- 26
2020-06-23 21:00:00 30.1 16 Sur 29 Sur 0 922.2 -- 24
2020-06-23 20:00:00 31.1 17 Sur 26 Sur 0 922.2 -- 24
2020-06-23 19:00:00 32.8 5 Este 23 Sudeste 0 922.2 -- 24
2020-06-23 18:00:00 33.9 4 Sudeste 24 Sudeste 0 923 -- 23
2020-06-23 17:00:00 33 3 Este 27 Sur 0 923.1 -- 23
2020-06-23 16:00:00 33.2 10 Sur 23 Sur 0 923.4 -- 24
2020-06-23 15:00:00 32.8 2 Norte 22 Sudeste 0 924.4 -- 24
2020-06-23 14:00:00 32 6 Este 22 Sudeste 0 925.3 -- 25
2020-06-23 13:00:00 30.4 7 Sudeste 17 Sudeste 0 925.5 -- 26
2020-06-23 12:00:00 29 3 Sudeste 19 Nordeste 0 925.6 -- 28
2020-06-23 11:00:00 27.8 4 Norte 11 Norte 0 926.1 -- 29
2020-06-23 10:00:00 26.3 4 Norte 8 Este 0 926.3 -- 31
2020-06-23 09:00:00 24.1 4 Nordeste 11 Sudeste 0 926.2 -- 34
2020-06-23 08:00:00 22.1 10 Sur 17 Sur 0 925.8 -- 33
2020-06-23 07:00:00 21.3 9 Sur 18 Sudeste 0 925.6 -- 33
2020-06-23 06:00:00 21 12 Sudeste 17 Sudeste 0 925.2 -- 33
2020-06-23 05:00:00 20.6 8 Sudeste 12 Sudeste 0 925.2 -- 33
2020-06-23 04:00:00 21 3 Este 9 Sur 0 925.9 -- 33
2020-06-23 03:00:00 21.7 4 Sudoeste 13 Sur 0 926.1 -- 32
2020-06-23 02:00:00 22.2 11 Sur 23 Sudeste 0 926.2 -- 32
2020-06-23 01:00:00 22.9 16 Sudeste 26 Sudeste 0 926.2 -- 31
2020-06-23 00:00:00 23.8 13 Sudeste 16 Este 0 926.4 -- 31
2020-06-22 23:00:00 26.1 8 Norte 21 Norte 0 926.3 -- 28
2020-06-22 22:00:00 25.5 9 Sudoeste 39 Sudoeste 0 925.2 -- 25
2020-06-22 21:00:00 28.9 14 Sur 22 Sur 0 925.2 -- 23
2020-06-22 20:00:00 30.4 13 Sur 27 Sur 0 925.3 -- 23
2020-06-22 19:00:00 31.8 8 Sudoeste 23 Sudoeste 0 925.3 -- 23
2020-06-22 18:00:00 32.1 6 Sudoeste 26 Sur 0 925.7 -- 23
2020-06-22 17:00:00 32.7 4 Nordeste 22 Sur 0 926.4 -- 24
2020-06-22 16:00:00 32.4 5 Sur 18 Sudoeste 0 927.3 -- 24
2020-06-22 15:00:00 30.1 6 Nordeste 28 Sur 0 928.4 -- 24
2020-06-22 14:00:00 31.1 7 Sudeste 27 Sur 0 928.9 -- 25
2020-06-22 13:00:00 30.5 3 Este 17 Sudeste 0 928.9 -- 25
2020-06-22 12:00:00 29.3 5 Nordeste 13 Este 0 929.6 -- 26
2020-06-22 11:00:00 26.9 2 Sur 9 Sur 0 929.3 -- 28
2020-06-22 10:00:00 24.1 3 Noroeste 7 Noroeste 0 929.8 -- 29
2020-06-22 09:00:00 22.6 0 Calma 4 Sudoeste 0 929.6 -- 31
2020-06-22 08:00:00 19.6 0 Calma 6 Oeste 0 929.3 -- 34
2020-06-22 07:00:00 17 3 Noroeste 8 Oeste 0 929.5 -- 34
2020-06-22 06:00:00 16.4 7 Oeste 9 Oeste 0 929.1 -- 34
2020-06-22 05:00:00 15.2 6 Sudoeste 7 Oeste 0 929.5 -- 33
2020-06-22 04:00:00 19.2 5 Oeste 8 Oeste 0 929.6 -- 31
2020-06-22 03:00:00 17.7 6 Sudoeste 8 Sudoeste 0 930.5 -- 31
2020-06-22 02:00:00 20.7 7 Oeste 11 Oeste 0 930.7 -- 29
2020-06-22 01:00:00 19.4 7 Sudoeste 9 Sudoeste 0 930.2 -- 30
2020-06-22 00:00:00 21.2 5 Sudoeste 14 Oeste 0 930.5 -- 28
2020-06-21 23:00:00 24.2 9 Oeste 14 Oeste 0 930.2 -- 27
2020-06-21 22:00:00 25 6 Noroeste 19 Noroeste 0 929.5 -- 25
2020-06-21 21:00:00 28.6 8 Noroeste 20 Noroeste 0 929.2 -- 24
2020-06-21 20:00:00 29.7 2 Este 18 Noroeste 0 928.7 -- 24
2020-06-21 19:00:00 30.1 4 Oeste 21 Norte 0 929.4 -- 23
2020-06-21 18:00:00 30.2 8 Oeste 19 Sur 0 929.4 -- 23
2020-06-21 17:00:00 30.8 9 Noroeste 40 Noroeste 0 930 -- 24
2020-06-21 16:00:00 30.8 3 Sur 23 Sudoeste 0 930.5 -- 24
2020-06-21 15:00:00 29.7 5 Sudoeste 26 Sudoeste 0 930.8 -- 26
2020-06-21 14:00:00 28.6 6 Norte 16 Sudoeste 0 931.5 -- 27
2020-06-21 13:00:00 28.8 3 Noroeste 20 Sudoeste 0 932.1 -- 28
2020-06-21 12:00:00 27.4 0 Calma 8 Nordeste 0 931.9 -- 30
2020-06-21 11:00:00 24.9 2 Norte 12 Noroeste 0 931.9 -- 32
2020-06-21 10:00:00 22.8 9 Noroeste 14 Noroeste 0 932.1 -- 34
2020-06-21 09:00:00 20.2 3 Sudoeste 6 Sudoeste 0 931.5 -- 35
2020-06-21 08:00:00 17.8 0 Calma 4 Nordeste 0 931.4 -- 37
2020-06-21 07:00:00 16.8 0 Calma 5 Oeste 0 930.7 -- 37
2020-06-21 06:00:00 16.6 3 Oeste 12 Oeste 0 930.7 -- 36
2020-06-21 05:00:00 16.8 8 Oeste 12 Oeste 0 930.7 -- 36
2020-06-21 04:00:00 16.6 6 Oeste 9 Oeste 0 930.7 -- 36
2020-06-21 03:00:00 18.5 0 Calma 9 Sudoeste 0 930.8 -- 35
2020-06-21 02:00:00 17.6 5 Sudoeste 9 Sudoeste 0 931.1 -- 35
2020-06-21 01:00:00 18.7 5 Sudoeste 8 Oeste 0 930.9 -- 32
2020-06-21 00:00:00 21.1 4 Sudoeste 10 Oeste 0 930.9 -- 30
2020-06-20 23:00:00 -- -- -- -- -- -- -- -- --
2020-06-20 22:00:00 24.1 15 Sudoeste 25 Sudoeste 0 929.4 -- 28
2020-06-20 21:00:00 25.4 18 Sudoeste 27 Sur 0 928.9 -- 28
2020-06-20 20:00:00 26.9 18 Sudoeste 28 Sur 0 928.6 -- 27
2020-06-20 19:00:00 28.2 11 Sudoeste 30 Sudoeste 0 928.9 -- 26
2020-06-20 18:00:00 28.2 7 Oeste 24 Sur 0 928.8 -- 26
2020-06-20 17:00:00 29.4 8 Oeste 36 Sudoeste 0 929.4 -- 26
2020-06-20 16:00:00 29 13 Sudoeste 28 Oeste 0 929.3 -- 26
2020-06-20 15:00:00 27.7 5 Sudeste 25 Sudoeste 0 929.9 -- 26
2020-06-20 14:00:00 27.6 14 Sudoeste 25 Oeste 0 930.4 -- 28
2020-06-20 13:00:00 26.6 4 Sudoeste 19 Sudoeste 0 930.6 -- 29
2020-06-20 12:00:00 25.7 2 Sudoeste 14 Sudeste 0 930.6 -- 30
2020-06-20 11:00:00 24.4 2 Este 7 Este 0 930.5 -- 30
2020-06-20 10:00:00 22.6 2 Nordeste 6 Nordeste 0 930.5 -- 33
2020-06-20 09:00:00 18.2 3 Nordeste 5 Nordeste 0 930 -- 43
2020-06-20 08:00:00 14.6 2 Nordeste 5 Nordeste 0 929.8 -- 48
2020-06-20 07:00:00 12.4 4 Nordeste 6 Nordeste 0 929.8 -- 50
2020-06-20 06:00:00 13.9 0 Calma 4 Norte 0 929.5 -- 47
2020-06-20 05:00:00 14.7 4 Norte 7 Nordeste 0 929.2 -- 46
2020-06-20 04:00:00 16.7 0 Calma 3 Este 0 929.3 -- 42
2020-06-20 03:00:00 16.9 0 Calma 4 Sudoeste 0 929.3 -- 43
2020-06-20 02:00:00 17.8 0 Calma 5 Oeste 0 929.4 -- 42
2020-06-20 01:00:00 18.1 4 Noroeste 13 Sudoeste 0 929.4 -- 41
2020-06-20 00:00:00 18.2 13 Oeste 16 Oeste 0 929.1 -- 39
2020-06-19 23:00:00 19.4 12 Sudoeste 19 Sudoeste 0 928.4 -- 37
2020-06-19 22:00:00 20.2 12 Sudoeste 22 Sudoeste 0 927.5 -- 34
2020-06-19 21:00:00 22.5 18 Sudoeste 29 Sur 0 927.4 -- 32
2020-06-19 20:00:00 23.7 17 Sur 27 Sudoeste 0 926.7 -- 31
2020-06-19 19:00:00 24.5 19 Sudoeste 32 Sudoeste 0 926 -- 30
2020-06-19 18:00:00 24.7 12 Sudoeste 34 Sudoeste 0 926.4 -- 30
2020-06-19 17:00:00 25.7 7 Sudoeste 24 Sudoeste 0 926.3 -- 30
2020-06-19 16:00:00 25.8 15 Sudoeste 28 Sudoeste 0 926.8 -- 30
2020-06-19 15:00:00 25.5 15 Sur 26 Sur 0 926.4 -- 31
2020-06-19 14:00:00 24.3 6 Oeste 21 Oeste 0 926.9 -- 32
2020-06-19 13:00:00 23.7 8 Oeste 19 Oeste 0 927.1 -- 34
2020-06-19 12:00:00 23.9 3 Sudeste 32 Sur 0 926.9 -- 36
2020-06-19 11:00:00 22.2 0 Calma 14 Sudeste 0 927.1 -- 39
2020-06-19 10:00:00 20.3 3 Sudeste 10 Nordeste 0 926.2 -- 42
2020-06-19 09:00:00 18.1 2 Este 8 Este 0 926 -- 44
2020-06-19 08:00:00 13.7 3 Nordeste 6 Sur 0 926.2 -- 54
2020-06-19 07:00:00 11.8 5 Sudeste 9 Este 0 925.5 -- 54
2020-06-19 06:00:00 12.3 0 Calma 17 Sudeste 0 925.1 -- 50
2020-06-19 05:00:00 12.5 10 Nordeste 14 Este 0 924.8 -- 44
2020-06-19 04:00:00 15.5 0 Calma 3 Norte 0 924.7 -- 40
2020-06-19 03:00:00 16.2 2 Norte 10 Oeste 0 924 -- 38
2020-06-19 02:00:00 16.1 5 Sudoeste 14 Oeste 0 924.1 -- 37
2020-06-19 01:00:00 17.3 8 Oeste 14 Oeste 0 924.3 -- 36
2020-06-19 00:00:00 18.7 7 Oeste 17 Oeste 0 924.2 -- 34
2020-06-18 23:00:00 18.9 13 Oeste 22 Sudoeste 0 923.4 -- 33
2020-06-18 22:00:00 19.7 14 Sudoeste 24 Sudoeste 0 922.5 -- 32
2020-06-18 21:00:00 22.5 17 Sudoeste 26 Sudoeste 0 921.8 -- 30
2020-06-18 20:00:00 24.1 14 Sudoeste 29 Sudoeste 0 921.2 -- 26
2020-06-18 19:00:00 25.5 12 Sudoeste 29 Sudoeste 0 921.1 -- 25
2020-06-18 18:00:00 25.9 12 Sudoeste 28 Sur 0 921.4 -- 26
2020-06-18 17:00:00 26.1 9 Sudoeste 30 Sudoeste 0 921.4 -- 26
2020-06-18 16:00:00 25.5 7 Oeste 32 Sudoeste 0 921.9 -- 28
2020-06-18 15:00:00 24.5 16 Sudoeste 32 Sudoeste 0 922.2 -- 28
2020-06-18 14:00:00 24.2 7 Sudoeste 32 Sudoeste 0 922.5 -- 30
2020-06-18 13:00:00 23.5 13 Sur 22 Sur 0 923 -- 31
2020-06-18 12:00:00 22.1 6 Sudeste 19 Sur 0 922.8 -- 32
2020-06-18 11:00:00 20.3 5 Sudoeste 15 Sudoeste 0 922.7 -- 34
2020-06-18 10:00:00 19.7 4 Noroeste 9 Norte 0 922.8 -- 36
2020-06-18 09:00:00 17.8 0 Calma 5 Norte 0 923.1 -- 38
2020-06-18 08:00:00 13.3 2 Sur 8 Sur 0 922.3 -- 43
2020-06-18 07:00:00 10.3 5 Norte 8 Norte 0 922.6 -- 43
2020-06-18 06:00:00 11.3 0 Calma 4 Sur 0 922.2 -- 42
2020-06-18 05:00:00 12.3 2 Sudoeste 6 Sudoeste 0 922.4 -- 40
2020-06-18 04:00:00 11.9 5 Sudoeste 7 Oeste 0 923 -- 40
2020-06-18 03:00:00 14.6 3 Oeste 5 Oeste 0 923.2 -- 37
2020-06-18 02:00:00 14.5 3 Sudoeste 13 Oeste 0 923.8 -- 37
2020-06-18 01:00:00 14.6 7 Oeste 16 Oeste 0 923.8 -- 37
2020-06-18 00:00:00 15.9 12 Oeste 15 Oeste 0 923.6 -- 34
2020-06-17 23:00:00 16.9 6 Oeste 13 Oeste 0 923.3 -- 32
2020-06-17 22:00:00 19 9 Oeste 21 Oeste 0 922.9 -- 31
2020-06-17 21:00:00 20.8 12 Oeste 26 Oeste 0 922.8 -- 28
2020-06-17 20:00:00 21.9 14 Oeste 33 Oeste 0 922 -- 28
2020-06-17 19:00:00 22.2 20 Sudoeste 37 Oeste 0 922.2 -- 28
2020-06-17 18:00:00 23.5 17 Oeste 39 Oeste 0 922.6 -- 28
2020-06-17 17:00:00 22.7 6 Sudoeste 37 Sudoeste 0 923.3 -- 29
2020-06-17 16:00:00 22.8 12 Sudoeste 43 Sudoeste 0 923.6 -- 31
2020-06-17 15:00:00 22.1 18 Sudoeste 32 Sudoeste 0 923.7 -- 33
2020-06-17 14:00:00 20.6 16 Oeste 35 Sudoeste 0 924.7 -- 35
2020-06-17 13:00:00 20.3 16 Sudoeste 38 Sudoeste 0 924.9 -- 39
2020-06-17 12:00:00 19.5 20 Sudoeste 33 Sudoeste 0 925 -- 40
2020-06-17 11:00:00 17.6 20 Sudoeste 35 Sudoeste 0 925.4 -- 44
2020-06-17 10:00:00 16.7 5 Sudeste 13 Sur 0 925.3 -- 49
2020-06-17 09:00:00 15.8 3 Noroeste 10 Noroeste 0 925.7 -- 55
2020-06-17 08:00:00 12.9 2 Oeste 7 Sur 0 925.6 -- 60
2020-06-17 07:00:00 11.2 5 Sudoeste 16 Oeste 0 925.2 -- 61
2020-06-17 06:00:00 12.7 11 Oeste 20 Sudoeste 0 925.2 -- 58
2020-06-17 05:00:00 12.3 17 Sudoeste 26 Oeste 0 925.3 -- 58
2020-06-17 04:00:00 12.6 19 Oeste 24 Oeste 0 925.6 -- 58
2020-06-17 03:00:00 13.6 15 Oeste 26 Oeste 0 926.1 -- 53
2020-06-17 02:00:00 14.7 14 Oeste 24 Oeste 0 926.7 -- 51
2020-06-17 01:00:00 16.1 13 Oeste 21 Oeste 0 927.2 -- 48
2020-06-17 00:00:00 16.6 10 Oeste 17 Oeste 0 927.8 -- 45
2020-06-16 23:00:00 17.4 8 Oeste 21 Oeste 0 927 -- 42
2020-06-16 22:00:00 18.3 13 Oeste 30 Oeste 0 926.8 -- 40
2020-06-16 21:00:00 19.8 17 Oeste 39 Oeste 0 926.2 -- 38
2020-06-16 20:00:00 20.4 19 Oeste 38 Noroeste 0 926.3 -- 36
2020-06-16 19:00:00 21.5 19 Oeste 47 Sudoeste 0 926.4 -- 35
2020-06-16 18:00:00 21.9 19 Oeste 45 Sudoeste 0 926.2 -- 34
2020-06-16 17:00:00 22.7 23 Oeste 48 Sudoeste 0 926.5 -- 32
2020-06-16 16:00:00 23.3 19 Oeste 40 Oeste 0 926.6 -- 32
2020-06-16 15:00:00 22.3 22 Oeste 42 Sudoeste 0 927.1 -- 32
2020-06-16 14:00:00 22.5 18 Oeste 37 Oeste 0 927.2 -- 31
2020-06-16 13:00:00 20.7 15 Sudoeste 28 Sudoeste 0 928 -- 36
2020-06-16 12:00:00 19.6 13 Sudoeste 36 Sudoeste 0 927.9 -- 38
2020-06-16 11:00:00 19.1 9 Oeste 23 Oeste 0 928.3 -- 42
2020-06-16 10:00:00 17.6 11 Oeste 18 Oeste 0 928.9 -- 44
2020-06-16 09:00:00 15.5 8 Sudoeste 14 Sudoeste 0 928.2 -- 48
2020-06-16 08:00:00 14.1 7 Oeste 15 Oeste 0 928.3 -- 50
2020-06-16 07:00:00 13 9 Oeste 17 Oeste 0 928.5 -- 48
2020-06-16 06:00:00 14.3 8 Oeste 13 Oeste 0 927.9 -- 45
2020-06-16 05:00:00 14.4 7 Oeste 14 Oeste 0 927.7 -- 43
2020-06-16 04:00:00 15.2 8 Oeste 13 Oeste 0 927.9 -- 42
2020-06-16 03:00:00 15.4 0 Calma 9 Sudoeste 0 928 -- 40
2020-06-16 02:00:00 14.6 7 Sudoeste 11 Oeste 0 928.6 -- 40
2020-06-16 01:00:00 15 5 Sudoeste 11 Oeste 0 928.7 -- 39
2020-06-16 00:00:00 17.1 8 Oeste 19 Oeste 0 929.2 -- 36
2020-06-15 23:00:00 18.1 11 Oeste 19 Oeste 0 929.1 -- 34
2020-06-15 22:00:00 19.1 14 Oeste 27 Sudoeste 0 929.1 -- 36
2020-06-15 21:00:00 20.6 20 Sudoeste 26 Sudoeste 0 927.9 -- 34
2020-06-15 20:00:00 23.3 12 Oeste 29 Sudoeste 0 927.9 -- 29
2020-06-15 19:00:00 24 17 Sudoeste 33 Sudoeste 0 927.7 -- 29
2020-06-15 18:00:00 23.9 13 Sudoeste 33 Sudeste 0 928.2 -- 30
2020-06-15 17:00:00 24.6 14 Sudoeste 33 Sudoeste 0 928.5 -- 30
2020-06-15 16:00:00 23.5 17 Oeste 30 Sudoeste 0 929.1 -- 30
2020-06-15 15:00:00 22.7 9 Oeste 27 Oeste 0 929.3 -- 32
2020-06-15 14:00:00 21.9 14 Oeste 29 Oeste 0 930.1 -- 33
2020-06-15 13:00:00 21.6 10 Sudoeste 22 Sudeste 0 930 -- 35
2020-06-15 12:00:00 20.3 5 Sudeste 17 Sudeste 0 930.4 -- 38
2020-06-15 11:00:00 18.4 5 Sudoeste 21 Sudoeste 0 930.4 -- 40
2020-06-15 10:00:00 17.2 4 Oeste 14 Sudoeste 0 931 -- 44
2020-06-15 09:00:00 16.1 0 Calma 5 Nordeste 0 930.8 -- 45
2020-06-15 08:00:00 13.4 0 Calma 5 Este 0 930.3 -- 49
2020-06-15 07:00:00 10.6 0 Calma 7 Oeste 0 930.4 -- 52
2020-06-15 06:00:00 11.3 0 Calma 5 Norte 0 929.8 -- 49
2020-06-15 05:00:00 12.8 0 Calma 8 Oeste 0 929.6 -- 44
2020-06-15 04:00:00 13.3 5 Oeste 8 Oeste 0 929.7 -- 42
2020-06-15 03:00:00 13.9 0 Calma 6 Sudoeste 0 930 -- 42
2020-06-15 02:00:00 13.8 4 Sudoeste 6 Oeste 0 929.9 -- 42
2020-06-15 01:00:00 15.5 5 Oeste 11 Oeste 0 929.8 -- 40
2020-06-15 00:00:00 16.5 6 Oeste 14 Oeste 0 929.7 -- 37